createdAt,value
2022-10-14T00:01:19.943Z,32.00
2022-10-14T00:04:05.111Z,33.30
2022-10-14T00:06:33.863Z,31.30
2022-10-14T00:09:04.997Z,29.20
2022-10-14T00:11:34.273Z,29.60
2022-10-14T00:14:13.435Z,31.50
2022-10-14T00:16:44.343Z,30.80
2022-10-14T00:21:43.212Z,33.20
2022-10-14T00:24:13.444Z,31.20
2022-10-14T00:26:40.947Z,31.50
2022-10-14T00:29:13.028Z,29.90
2022-10-14T00:31:40.272Z,31.30
2022-10-14T00:34:07.524Z,31.20
2022-10-14T00:36:34.850Z,30.80
2022-10-14T00:39:02.836Z,31.90
2022-10-14T00:41:33.537Z,31.80
2022-10-14T00:44:02.627Z,29.40
2022-10-14T00:46:35.619Z,28.40
2022-10-14T00:49:13.592Z,30.70
2022-10-14T00:51:44.676Z,30.40
2022-10-14T00:54:15.262Z,30.80
2022-10-14T00:56:44.705Z,30.70
2022-10-14T00:59:12.807Z,30.10
2022-10-14T01:01:40.560Z,30.30
2022-10-14T01:04:08.112Z,30.70
2022-10-14T01:07:00.258Z,28.40
2022-10-14T01:09:34.957Z,30.80
2022-10-14T01:12:29.511Z,28.70
2022-10-14T01:15:38.065Z,32.40
2022-10-14T01:18:18.025Z,31.60
2022-10-14T01:21:03.641Z,29.90
2022-10-14T01:23:56.536Z,29.10
2022-10-14T01:26:36.160Z,28.90
2022-10-14T01:29:45.080Z,28.30
2022-10-14T01:32:48.308Z,29.30
2022-10-14T01:35:31.029Z,30.10
2022-10-14T01:38:03.197Z,30.60
2022-10-14T01:40:41.728Z,30.10
2022-10-14T01:43:13.125Z,30.00
2022-10-14T01:45:43.611Z,29.10
2022-10-14T01:48:17.239Z,28.60
2022-10-14T01:50:49.691Z,30.10
2022-10-14T01:53:31.636Z,29.40
2022-10-14T01:56:00.526Z,30.50
2022-10-14T01:58:31.390Z,30.80
2022-10-14T02:00:58.621Z,30.30
2022-10-14T02:03:26.839Z,29.20
2022-10-14T02:06:01.121Z,29.50
2022-10-14T02:08:53.234Z,30.90
2022-10-14T02:11:22.139Z,29.70
2022-10-14T02:14:12.285Z,30.20
2022-10-14T02:17:06.541Z,30.70
2022-10-14T02:19:42.088Z,29.70
2022-10-14T02:22:41.179Z,30.50
2022-10-14T02:25:19.628Z,27.90
2022-10-14T02:27:50.124Z,29.20
2022-10-14T02:30:18.485Z,31.90
2022-10-14T02:32:51.615Z,29.50
2022-10-14T02:35:21.364Z,30.90
2022-10-14T02:37:50.823Z,22.20
2022-10-14T02:40:24.994Z,28.80
2022-10-14T02:42:55.253Z,28.20
2022-10-14T02:45:27.138Z,27.40
2022-10-14T02:47:54.301Z,29.30
2022-10-14T02:50:21.866Z,29.90
2022-10-14T02:52:52.783Z,29.00
2022-10-14T02:55:21.620Z,29.90
2022-10-14T02:57:48.895Z,30.50
2022-10-14T03:00:17.341Z,30.60
2022-10-14T03:02:44.721Z,31.00
2022-10-14T03:05:13.393Z,45.60
2022-10-14T03:07:41.613Z,32.10
2022-10-14T03:12:38.300Z,30.60
2022-10-14T03:15:07.488Z,32.40
2022-10-14T03:17:35.514Z,29.80
2022-10-14T03:20:05.732Z,29.90
2022-10-14T03:22:34.860Z,26.70
2022-10-14T03:25:02.490Z,27.00
2022-10-14T03:27:39.964Z,27.90
2022-10-14T03:30:10.149Z,30.50
2022-10-14T03:32:42.462Z,31.10
2022-10-14T03:35:35.848Z,30.50
2022-10-14T03:38:08.497Z,29.80
2022-10-14T03:40:35.947Z,26.60
2022-10-14T03:43:06.420Z,27.60
2022-10-14T03:45:40.138Z,28.60
2022-10-14T03:48:09.182Z,28.70
2022-10-14T03:50:39.189Z,28.90
2022-10-14T03:53:07.965Z,29.50
2022-10-14T03:55:37.032Z,27.30
2022-10-14T03:58:05.418Z,27.80
2022-10-14T04:00:35.713Z,27.50
2022-10-14T04:03:24.960Z,28.20
2022-10-14T04:05:52.400Z,27.00
2022-10-14T04:08:22.774Z,26.20
2022-10-14T04:10:55.695Z,27.70
2022-10-14T04:13:23.310Z,29.40
2022-10-14T04:15:50.593Z,28.80
2022-10-14T04:18:24.929Z,26.70
2022-10-14T04:20:53.422Z,27.00
2022-10-14T04:23:21.903Z,26.10
2022-10-14T04:25:52.272Z,26.50
2022-10-14T04:28:20.564Z,28.00
2022-10-14T04:30:58.933Z,29.00
2022-10-14T04:33:28.926Z,28.10
2022-10-14T04:35:59.632Z,28.20
2022-10-14T04:38:30.912Z,29.10
2022-10-14T04:41:01.992Z,29.20
2022-10-14T04:43:30.243Z,26.90
2022-10-14T04:45:59.075Z,27.40
2022-10-14T04:48:26.858Z,27.20
2022-10-14T04:50:55.248Z,28.00
2022-10-14T04:53:49.567Z,27.30
2022-10-14T04:56:29.060Z,28.80
2022-10-14T04:59:00.836Z,29.70
2022-10-14T05:02:03.406Z,28.30
2022-10-14T05:04:39.912Z,27.90
2022-10-14T05:07:07.316Z,27.20
2022-10-14T05:09:34.808Z,28.50
2022-10-14T05:12:04.279Z,27.40
2022-10-14T05:14:40.587Z,28.20
2022-10-14T05:17:20.244Z,27.80
2022-10-14T05:19:47.476Z,28.90
2022-10-14T05:22:15.181Z,27.40
2022-10-14T05:24:46.038Z,26.80
2022-10-14T05:27:13.775Z,27.40
2022-10-14T05:29:41.721Z,29.80
2022-10-14T05:32:09.844Z,28.10
2022-10-14T05:34:40.905Z,29.10
2022-10-14T05:37:10.713Z,31.20
2022-10-14T05:39:43.754Z,31.50
2022-10-14T05:42:12.081Z,30.00
2022-10-14T05:44:40.722Z,28.20
2022-10-14T05:47:10.201Z,28.50
2022-10-14T05:49:38.064Z,26.90
2022-10-14T05:52:05.752Z,29.80
2022-10-14T05:54:33.660Z,32.10
2022-10-14T05:57:03.839Z,31.60
2022-10-14T05:59:33.297Z,31.50
2022-10-14T06:02:02.626Z,31.10
2022-10-14T06:04:29.995Z,27.40
2022-10-14T06:06:58.758Z,29.20
2022-10-14T06:09:26.478Z,28.20
2022-10-14T06:11:54.201Z,27.40
2022-10-14T06:14:22.761Z,29.30
2022-10-14T06:16:52.183Z,29.00
2022-10-14T06:19:19.547Z,28.20
2022-10-14T06:21:46.792Z,29.30
2022-10-14T06:24:14.885Z,28.20
2022-10-14T06:26:41.972Z,30.60
2022-10-14T06:29:09.089Z,31.60
2022-10-14T06:31:36.517Z,31.40
2022-10-14T06:34:07.909Z,30.70
2022-10-14T06:36:36.653Z,31.60
2022-10-14T06:39:05.215Z,30.10
2022-10-14T06:41:34.990Z,30.00
2022-10-14T06:44:02.208Z,29.30
2022-10-14T06:46:30.941Z,30.30
2022-10-14T06:48:58.269Z,30.60
2022-10-14T06:51:25.514Z,32.20
2022-10-14T06:53:53.099Z,32.20
2022-10-14T06:56:20.458Z,34.00
2022-10-14T06:58:47.504Z,33.10
2022-10-14T07:01:15.102Z,32.70
2022-10-14T07:03:42.576Z,31.20
2022-10-14T07:06:09.878Z,32.60
2022-10-14T07:08:37.857Z,33.00
2022-10-14T07:11:05.484Z,30.80
2022-10-14T07:13:34.296Z,29.00
2022-10-14T07:16:02.371Z,32.70
2022-10-14T07:18:29.987Z,30.60
2022-10-14T07:21:01.231Z,29.40
2022-10-14T07:23:28.780Z,34.70
2022-10-14T07:25:57.234Z,27.80
2022-10-14T07:28:24.653Z,27.20
2022-10-14T07:30:59.510Z,30.00
2022-10-14T07:33:27.093Z,29.10
2022-10-14T07:35:55.488Z,26.90
2022-10-14T07:38:22.959Z,27.20
2022-10-14T07:40:58.253Z,25.00
2022-10-14T07:43:26.009Z,26.40
2022-10-14T07:45:59.800Z,26.60
2022-10-14T07:48:52.258Z,25.70
2022-10-14T07:51:19.516Z,25.60
2022-10-14T07:53:48.573Z,27.30
2022-10-14T07:56:16.407Z,28.50
2022-10-14T07:58:44.715Z,33.00
2022-10-14T08:01:15.075Z,27.60
2022-10-14T08:03:43.323Z,25.30
2022-10-14T08:06:11.436Z,25.70
2022-10-14T08:08:40.207Z,25.10
2022-10-14T08:11:16.210Z,23.80
2022-10-14T08:13:47.468Z,23.90
2022-10-14T08:16:22.900Z,22.90
2022-10-14T08:18:51.106Z,22.10
2022-10-14T08:21:19.582Z,21.70
2022-10-14T08:23:47.355Z,22.10
2022-10-14T08:26:28.190Z,21.60
2022-10-14T08:28:55.412Z,21.30
2022-10-14T08:31:23.088Z,21.60
2022-10-14T08:33:50.189Z,21.30
2022-10-14T08:36:19.212Z,20.70
2022-10-14T08:38:47.654Z,19.70
2022-10-14T08:41:26.959Z,18.60
2022-10-14T08:44:07.555Z,19.80
2022-10-14T08:46:48.089Z,18.30
2022-10-14T08:49:42.506Z,18.80
2022-10-14T08:52:26.627Z,17.70
2022-10-14T08:55:00.806Z,18.20
2022-10-14T08:57:42.942Z,19.50
2022-10-14T09:00:12.065Z,18.90
2022-10-14T09:02:51.149Z,18.20
2022-10-14T09:05:22.539Z,18.40
2022-10-14T09:07:52.347Z,19.40
2022-10-14T09:10:43.569Z,17.40
2022-10-14T09:13:18.307Z,17.60
2022-10-14T09:15:50.075Z,16.70
2022-10-14T09:18:37.586Z,15.50
2022-10-14T09:21:40.357Z,17.30
2022-10-14T09:24:25.412Z,14.50
2022-10-14T09:29:42.845Z,15.60
2022-10-14T09:32:19.617Z,18.20
2022-10-14T09:34:51.557Z,14.60
2022-10-14T09:37:34.287Z,16.70
2022-10-14T09:40:21.718Z,16.10
2022-10-14T09:43:29.254Z,16.50
2022-10-14T09:45:56.935Z,18.50
2022-10-14T09:48:35.219Z,19.10
2022-10-14T09:51:10.293Z,17.20
2022-10-14T09:53:44.983Z,19.80
2022-10-14T09:56:13.237Z,17.50
2022-10-14T09:58:50.749Z,18.10
2022-10-14T10:01:25.115Z,17.10
2022-10-14T10:03:55.494Z,16.20
2022-10-14T10:06:31.491Z,14.70
2022-10-14T10:08:59.827Z,16.80
2022-10-14T10:11:37.398Z,17.00
2022-10-14T10:14:25.550Z,21.20
2022-10-14T10:17:07.987Z,20.20
2022-10-14T10:19:39.325Z,18.50
2022-10-14T10:22:26.117Z,15.10
2022-10-14T10:25:06.271Z,13.20
2022-10-14T10:27:45.840Z,14.20
2022-10-14T10:30:48.221Z,14.00
2022-10-14T10:33:36.865Z,12.40
2022-10-14T10:38:55.157Z,14.30
2022-10-14T10:41:41.091Z,13.60
2022-10-14T10:44:33.659Z,13.60
2022-10-14T10:47:24.109Z,13.70
2022-10-14T10:52:56.249Z,14.40
2022-10-14T10:55:39.989Z,13.40
2022-10-14T10:58:46.907Z,13.90
2022-10-14T11:01:38.735Z,12.20
2022-10-14T11:04:42.638Z,12.60
2022-10-14T11:08:03.193Z,12.30
2022-10-14T11:11:06.064Z,13.60
2022-10-14T11:13:45.289Z,12.90
2022-10-14T11:16:29.242Z,13.30
2022-10-14T11:19:05.803Z,13.60
2022-10-14T11:22:04.394Z,12.50
2022-10-14T11:24:54.288Z,12.70
2022-10-14T11:27:38.268Z,12.40
2022-10-14T11:30:15.434Z,11.50
2022-10-14T11:32:52.064Z,14.30
2022-10-14T11:35:56.411Z,14.40
2022-10-14T11:38:54.524Z,14.30
2022-10-14T11:41:52.996Z,13.50
2022-10-14T11:44:38.184Z,13.10
2022-10-14T11:47:16.120Z,13.50
2022-10-14T11:50:00.486Z,12.90
2022-10-14T11:52:31.639Z,13.60
2022-10-14T11:55:09.685Z,13.50
2022-10-14T11:57:48.036Z,14.20
2022-10-14T12:00:35.933Z,11.20
2022-10-14T12:03:09.540Z,11.70
2022-10-14T12:05:40.987Z,12.90
2022-10-14T12:08:28.498Z,12.00
2022-10-14T12:11:10.467Z,13.10
2022-10-14T12:13:54.476Z,13.00
2022-10-14T12:16:23.814Z,10.50
2022-10-14T12:18:55.765Z,11.50
2022-10-14T12:22:08.122Z,12.60
2022-10-14T12:24:42.499Z,13.20
2022-10-14T12:27:12.462Z,14.00
2022-10-14T12:29:45.698Z,13.20
2022-10-14T12:32:15.987Z,13.10
2022-10-14T12:34:43.854Z,12.70
2022-10-14T12:37:34.760Z,11.40
2022-10-14T12:40:03.054Z,11.40
2022-10-14T12:42:34.847Z,11.00
2022-10-14T12:45:15.200Z,9.50
2022-10-14T12:47:44.390Z,9.90
2022-10-14T12:50:14.735Z,9.90
2022-10-14T12:52:55.414Z,8.80
2022-10-14T12:55:25.747Z,8.60
2022-10-14T13:00:21.987Z,7.80
2022-10-14T13:02:53.154Z,6.90
2022-10-14T13:05:42.564Z,7.30
2022-10-14T13:08:27.745Z,7.00
2022-10-14T13:10:54.991Z,12.70
2022-10-14T13:13:53.098Z,7.50
2022-10-14T13:16:23.164Z,6.90
2022-10-14T13:21:34.047Z,6.20
2022-10-14T13:24:17.266Z,7.20
2022-10-14T13:26:58.184Z,6.70
2022-10-14T13:29:42.407Z,6.90
2022-10-14T13:32:12.473Z,6.60
2022-10-14T13:37:41.934Z,5.70
2022-10-14T13:40:29.948Z,6.70
2022-10-14T13:43:00.084Z,6.00
2022-10-14T13:45:42.232Z,5.30
2022-10-14T13:48:16.672Z,6.20
2022-10-14T13:50:47.656Z,5.60
2022-10-14T13:53:17.271Z,12.50
2022-10-14T13:55:54.251Z,12.50
2022-10-14T13:58:24.158Z,6.80
2022-10-14T14:00:58.086Z,6.60
2022-10-14T14:03:35.779Z,6.70
2022-10-14T14:06:11.261Z,6.40
2022-10-14T14:08:47.645Z,6.90
2022-10-14T14:11:35.428Z,6.90
2022-10-14T14:14:06.844Z,7.30
2022-10-14T14:16:54.936Z,6.80
2022-10-14T14:19:25.593Z,7.10
2022-10-14T14:22:24.187Z,8.40
2022-10-14T14:24:51.638Z,7.30
2022-10-14T14:27:23.150Z,10.70
2022-10-14T14:29:53.767Z,11.40
2022-10-14T14:32:28.267Z,9.80
2022-10-14T14:34:56.173Z,10.00
2022-10-14T14:37:55.617Z,10.40
2022-10-14T14:40:30.212Z,9.00
2022-10-14T14:43:00.676Z,10.00
2022-10-14T14:45:46.171Z,9.30
2022-10-14T14:48:15.898Z,9.50
2022-10-14T14:50:44.837Z,8.90
2022-10-14T14:53:21.567Z,10.50
2022-10-14T14:56:14.319Z,10.80
2022-10-14T14:58:42.196Z,12.20
2022-10-14T15:01:24.765Z,15.10
2022-10-14T15:04:13.196Z,13.90
2022-10-14T15:06:51.320Z,15.30
2022-10-14T15:09:43.212Z,17.80
2022-10-14T15:12:20.435Z,18.40
2022-10-14T15:14:52.672Z,16.60
2022-10-14T15:17:25.941Z,20.00
2022-10-14T15:19:57.803Z,16.80
2022-10-14T15:22:37.466Z,15.80
2022-10-14T15:25:07.769Z,17.30
2022-10-14T15:27:35.095Z,15.20
2022-10-14T15:30:24.011Z,13.30
2022-10-14T15:32:52.632Z,12.60
2022-10-14T15:35:21.394Z,13.30
2022-10-14T15:37:49.970Z,11.50
2022-10-14T15:40:29.436Z,11.10
2022-10-14T15:42:57.919Z,11.10
2022-10-14T15:45:25.662Z,11.10
2022-10-14T15:47:58.326Z,11.30
2022-10-14T15:50:26.267Z,12.20
2022-10-14T15:52:55.241Z,12.50
2022-10-14T15:55:29.645Z,14.80
2022-10-14T15:57:57.015Z,28.00
2022-10-14T16:00:25.505Z,24.90
2022-10-14T16:03:00.515Z,25.40
2022-10-14T16:05:29.246Z,18.80
2022-10-14T16:07:57.113Z,80.50
2022-10-14T16:10:25.875Z,44.10
2022-10-14T16:12:55.904Z,34.40
2022-10-14T16:15:30.693Z,22.60
2022-10-14T16:17:58.622Z,22.40
2022-10-14T16:20:26.613Z,24.60
2022-10-14T16:22:54.055Z,27.80
2022-10-14T16:25:39.029Z,23.70
2022-10-14T16:28:09.878Z,24.10
2022-10-14T16:30:40.322Z,24.60
2022-10-14T16:33:07.844Z,24.60
2022-10-14T16:35:35.105Z,29.20
2022-10-14T16:38:02.298Z,31.10
2022-10-14T16:40:34.290Z,26.60
2022-10-14T16:43:05.938Z,25.00
2022-10-14T16:45:33.294Z,18.40
2022-10-14T16:48:00.556Z,20.00
2022-10-14T16:50:28.835Z,32.30
2022-10-14T16:53:15.112Z,61.00
2022-10-14T16:55:42.748Z,20.10
2022-10-14T16:58:10.443Z,21.30
2022-10-14T17:00:37.822Z,17.50
2022-10-14T17:03:10.861Z,29.80
2022-10-14T17:05:39.221Z,51.90
2022-10-14T17:08:06.643Z,50.60
2022-10-14T17:10:34.648Z,44.90
2022-10-14T17:13:02.430Z,27.20
2022-10-14T17:15:30.290Z,27.90
2022-10-14T17:17:57.747Z,27.60
2022-10-14T17:20:25.935Z,29.40
2022-10-14T17:22:53.105Z,29.80
2022-10-14T17:25:20.690Z,32.50
2022-10-14T17:27:49.013Z,27.20
2022-10-14T17:30:18.396Z,23.60
2022-10-14T17:32:46.999Z,21.80
2022-10-14T17:35:15.456Z,21.30
2022-10-14T17:37:44.457Z,21.70
2022-10-14T17:40:12.864Z,19.60
2022-10-14T17:42:41.633Z,20.10
2022-10-14T17:45:09.439Z,19.10
2022-10-14T17:47:37.256Z,17.40
2022-10-14T17:50:06.658Z,16.60
2022-10-14T17:52:33.768Z,16.70
2022-10-14T17:55:01.647Z,20.90
2022-10-14T17:57:29.364Z,19.20
2022-10-14T17:59:57.238Z,24.00
2022-10-14T18:02:24.713Z,21.50
2022-10-14T18:04:52.081Z,23.60
2022-10-14T18:07:22.347Z,53.00
2022-10-14T18:09:50.538Z,25.10
2022-10-14T18:12:17.565Z,25.00
2022-10-14T18:14:44.721Z,61.80
2022-10-14T18:17:12.978Z,41.10
2022-10-14T18:19:41.336Z,38.10
2022-10-14T18:22:10.656Z,41.60
2022-10-14T18:24:39.473Z,77.00
2022-10-14T18:27:06.752Z,63.50
2022-10-14T18:29:33.805Z,40.90
2022-10-14T18:32:01.354Z,41.30
2022-10-14T18:34:28.497Z,38.20
2022-10-14T18:36:55.544Z,35.00
2022-10-14T18:39:23.934Z,33.00
2022-10-14T18:41:51.090Z,42.10
2022-10-14T18:44:18.310Z,36.00
2022-10-14T18:46:47.391Z,30.40
2022-10-14T18:49:14.699Z,26.40
2022-10-14T18:51:42.968Z,24.20
2022-10-14T18:54:23.553Z,25.60
2022-10-14T18:56:50.677Z,28.70
2022-10-14T18:59:21.150Z,27.80
2022-10-14T19:01:53.117Z,27.40
2022-10-14T19:04:23.903Z,27.80
2022-10-14T19:06:50.908Z,30.90
2022-10-14T19:09:21.354Z,27.60
2022-10-14T19:11:52.698Z,28.70
2022-10-14T19:14:22.470Z,32.90
2022-10-14T19:16:50.337Z,34.70
2022-10-14T19:19:19.565Z,63.40
2022-10-14T19:21:53.892Z,45.50
2022-10-14T19:24:21.491Z,42.30
2022-10-14T19:26:49.523Z,35.60
2022-10-14T19:29:17.126Z,26.60
2022-10-14T19:31:44.503Z,25.20
2022-10-14T19:34:14.528Z,25.50
2022-10-14T19:36:43.184Z,26.80
2022-10-14T19:39:13.977Z,27.10
2022-10-14T19:41:44.697Z,26.50
2022-10-14T19:44:13.451Z,25.20
2022-10-14T19:46:41.691Z,25.00
2022-10-14T19:49:13.754Z,24.80
2022-10-14T19:51:42.491Z,24.90
2022-10-14T19:54:11.807Z,28.00
2022-10-14T19:56:39.635Z,26.80
2022-10-14T19:59:06.984Z,27.90
2022-10-14T20:01:34.274Z,25.90
2022-10-14T20:04:02.438Z,26.60
2022-10-14T20:06:33.432Z,24.80
2022-10-14T20:09:01.311Z,29.00
2022-10-14T20:11:30.984Z,27.20
2022-10-14T20:13:59.078Z,21.90
2022-10-14T20:16:26.945Z,24.40
2022-10-14T20:18:55.885Z,24.20
2022-10-14T20:21:23.598Z,23.50
2022-10-14T20:23:50.715Z,23.50
2022-10-14T20:26:20.880Z,20.80
2022-10-14T20:28:49.495Z,20.90
2022-10-14T20:31:18.912Z,22.10
2022-10-14T20:33:46.590Z,25.30
2022-10-14T20:36:16.915Z,30.30
2022-10-14T20:38:44.910Z,27.60
2022-10-14T20:41:21.238Z,24.70
2022-10-14T20:43:49.271Z,28.00
2022-10-14T20:46:17.555Z,23.00
2022-10-14T20:48:45.205Z,22.20
2022-10-14T20:51:19.697Z,22.60
2022-10-14T20:53:47.626Z,22.90
2022-10-14T20:56:15.348Z,30.80
2022-10-14T20:58:42.463Z,26.90
2022-10-14T21:01:16.318Z,24.50
2022-10-14T21:03:45.534Z,24.80
2022-10-14T21:06:16.494Z,23.70
2022-10-14T21:08:44.157Z,23.60
2022-10-14T21:11:15.392Z,23.20
2022-10-14T21:13:45.391Z,22.60
2022-10-14T21:16:33.364Z,23.70
2022-10-14T21:19:03.775Z,22.70
2022-10-14T21:21:36.445Z,21.90
2022-10-14T21:24:03.817Z,23.40
2022-10-14T21:26:31.594Z,23.60
2022-10-14T21:29:01.806Z,23.70
2022-10-14T21:31:29.251Z,24.50
2022-10-14T21:34:04.140Z,25.00
2022-10-14T21:36:34.787Z,25.30
2022-10-14T21:39:10.787Z,23.20
2022-10-14T21:41:39.270Z,21.90
2022-10-14T21:44:08.296Z,23.70
2022-10-14T21:46:36.251Z,25.30
2022-10-14T21:49:04.431Z,23.60
2022-10-14T21:51:32.422Z,24.10
2022-10-14T21:54:00.520Z,23.30
2022-10-14T21:56:28.561Z,24.00
2022-10-14T21:58:56.394Z,24.30
2022-10-14T22:01:29.501Z,22.50
2022-10-14T22:03:59.508Z,21.70
2022-10-14T22:06:27.744Z,23.50
2022-10-14T22:08:57.602Z,25.30
2022-10-14T22:11:31.477Z,24.90
2022-10-14T22:14:00.890Z,26.70
2022-10-14T22:16:28.818Z,27.50
2022-10-14T22:18:59.204Z,25.70
2022-10-14T22:21:29.362Z,25.20
2022-10-14T22:23:58.036Z,24.50
2022-10-14T22:26:26.569Z,26.60
2022-10-14T22:29:06.457Z,23.90
2022-10-14T22:34:04.967Z,26.60
2022-10-14T22:36:34.175Z,24.20
2022-10-14T22:39:05.640Z,23.00
2022-10-14T22:41:35.664Z,21.80
2022-10-14T22:44:05.656Z,21.50
2022-10-14T22:46:35.366Z,25.10
2022-10-14T22:49:03.117Z,20.80
2022-10-14T22:51:33.980Z,21.60
2022-10-14T22:54:01.392Z,19.30
2022-10-14T22:56:30.323Z,19.10
2022-10-14T22:59:01.456Z,20.00
2022-10-14T23:01:28.820Z,20.90
2022-10-14T23:03:57.838Z,20.90
2022-10-14T23:06:26.278Z,22.00
2022-10-14T23:08:54.134Z,20.10
2022-10-14T23:11:23.793Z,20.40
2022-10-14T23:13:51.719Z,18.90
2022-10-14T23:16:21.111Z,27.90
2022-10-14T23:18:49.112Z,25.00
2022-10-14T23:21:20.757Z,20.80
2022-10-14T23:23:50.097Z,22.90
2022-10-14T23:26:23.092Z,21.00
2022-10-14T23:28:52.387Z,24.20
2022-10-14T23:31:22.670Z,37.70
2022-10-14T23:33:52.052Z,16.70
2022-10-14T23:36:21.310Z,15.90
2022-10-14T23:38:49.532Z,15.60
2022-10-14T23:41:16.906Z,20.50
2022-10-14T23:43:44.144Z,20.40
2022-10-14T23:46:12.045Z,15.10
2022-10-14T23:48:39.788Z,14.20
2022-10-14T23:51:07.771Z,21.90
2022-10-14T23:53:35.634Z,15.30
2022-10-14T23:56:05.584Z,21.10
2022-10-14T23:58:33.006Z,22.80
